DAL285 KSAN-KSFO
Flight info
| Callsign | DAL285 |
|---|---|
| Flight time | 1h 12m |
| Altitude | 38000 |
| Route | PADRZ2 IKAYE RIZIN SPLNT STOKD SERFR SERFR4 |
| Aircraft | B738/M-SDE2E3FGHIRWXY/LB1 |
Departure
| Time | 2026-05-05 03:43 |
|---|---|
| Airport | San Diego International Airport (KSAN) |
Arrival
| Time | 2026-05-05 04:55 |
|---|---|
| Airport | San Francisco International Airport (KSFO) |
| Time | Latitude | Longitude | Altitude | Speed | Heading |
|---|---|---|---|---|---|
| 2026-05-05 03:09 | 32.73347 | -117.20058 | 25 ft | 0 kts | 263° |
| 2026-05-05 03:30 | 32.73349 | -117.20034 | 28 ft | 4 kts | 262° |
| 2026-05-05 03:30 | 32.73354 | -117.20002 | 30 ft | 4 kts | 260° |
| 2026-05-05 03:31 | 32.73354 | -117.19974 | 30 ft | 4 kts | 302° |
| 2026-05-05 03:31 | 32.73349 | -117.19967 | 30 ft | 0 kts | 348° |
| 2026-05-05 03:36 | 32.73354 | -117.19969 | 30 ft | 3 kts | 348° |
| 2026-05-05 03:36 | 32.73401 | -117.19968 | 29 ft | 11 kts | 11° |
| 2026-05-05 03:37 | 32.73466 | -117.19938 | 30 ft | 6 kts | 61° |
| 2026-05-05 03:37 | 32.73470 | -117.19857 | 27 ft | 13 kts | 107° |
| 2026-05-05 03:37 | 32.73436 | -117.19720 | 28 ft | 22 kts | 105° |
| 2026-05-05 03:37 | 32.73390 | -117.19523 | 29 ft | 27 kts | 105° |
| 2026-05-05 03:38 | 32.73336 | -117.19299 | 24 ft | 30 kts | 106° |
| 2026-05-05 03:38 | 32.73277 | -117.19061 | 24 ft | 31 kts | 107° |
| 2026-05-05 03:38 | 32.73218 | -117.18813 | 27 ft | 32 kts | 105° |
| 2026-05-05 03:38 | 32.73155 | -117.18557 | 27 ft | 34 kts | 107° |
| 2026-05-05 03:39 | 32.73088 | -117.18284 | 23 ft | 35 kts | 106° |
| 2026-05-05 03:39 | 32.73019 | -117.17994 | 19 ft | 37 kts | 106° |
| 2026-05-05 03:39 | 32.72952 | -117.17715 | 19 ft | 16 kts | 105° |
| 2026-05-05 03:39 | 32.72953 | -117.17676 | 19 ft | 0 kts | 74° |
| 2026-05-05 03:42 | 32.72966 | -117.17625 | 21 ft | 10 kts | 73° |
| 2026-05-05 03:42 | 32.72997 | -117.17561 | 23 ft | 9 kts | 21° |
| 2026-05-05 03:42 | 32.73024 | -117.17588 | 23 ft | 5 kts | 270° |
| 2026-05-05 03:43 | 32.73040 | -117.17668 | 20 ft | 24 kts | 287° |
| 2026-05-05 03:43 | 32.73179 | -117.18242 | 26 ft | 118 kts | 286° |
| 2026-05-05 03:43 | 32.73482 | -117.19478 | 231 ft | 180 kts | 287° |
| 2026-05-05 03:43 | 32.73883 | -117.20953 | 1233 ft | 194 kts | 288° |
| 2026-05-05 03:44 | 32.74565 | -117.22435 | 2089 ft | 211 kts | 300° |
| 2026-05-05 03:44 | 32.75342 | -117.23847 | 3412 ft | 197 kts | 301° |
| 2026-05-05 03:44 | 32.76111 | -117.25176 | 4540 ft | 196 kts | 303° |
| 2026-05-05 03:44 | 32.76947 | -117.26563 | 5215 ft | 213 kts | 303° |
| 2026-05-05 03:45 | 32.77833 | -117.27953 | 6302 ft | 206 kts | 306° |
| 2026-05-05 03:45 | 32.78693 | -117.29277 | 7320 ft | 202 kts | 305° |
| 2026-05-05 03:45 | 32.79614 | -117.30559 | 8022 ft | 215 kts | 307° |
| 2026-05-05 03:45 | 32.80606 | -117.31938 | 8432 ft | 224 kts | 304° |
| 2026-05-05 03:46 | 32.81489 | -117.33473 | 8811 ft | 234 kts | 300° |
| 2026-05-05 03:46 | 32.82399 | -117.35122 | 9193 ft | 244 kts | 300° |
| 2026-05-05 03:46 | 32.83376 | -117.36825 | 9582 ft | 253 kts | 301° |
| 2026-05-05 03:46 | 32.84413 | -117.38562 | 9963 ft | 262 kts | 302° |
| 2026-05-05 03:47 | 32.85503 | -117.40337 | 10304 ft | 269 kts | 303° |
| 2026-05-05 03:47 | 32.86636 | -117.42145 | 10647 ft | 275 kts | 303° |
| 2026-05-05 03:47 | 32.87801 | -117.43982 | 10994 ft | 281 kts | 303° |
| 2026-05-05 03:47 | 32.88992 | -117.45844 | 11343 ft | 285 kts | 303° |
| 2026-05-05 03:48 | 32.90199 | -117.47723 | 11690 ft | 286 kts | 303° |
| 2026-05-05 03:48 | 32.91409 | -117.49605 | 12041 ft | 287 kts | 303° |
| 2026-05-05 03:48 | 32.92627 | -117.51500 | 12397 ft | 289 kts | 303° |
| 2026-05-05 03:48 | 32.93852 | -117.53407 | 12760 ft | 291 kts | 303° |
| 2026-05-05 03:49 | 32.95082 | -117.55322 | 13123 ft | 292 kts | 303° |
| 2026-05-05 03:49 | 32.96300 | -117.57221 | 13484 ft | 293 kts | 303° |
| 2026-05-05 03:49 | 32.97537 | -117.59150 | 13850 ft | 293 kts | 303° |
| 2026-05-05 03:49 | 32.98774 | -117.61080 | 14179 ft | 294 kts | 302° |
| 2026-05-05 03:50 | 33.00016 | -117.63021 | 14510 ft | 295 kts | 302° |
| 2026-05-05 03:50 | 33.01262 | -117.64969 | 14845 ft | 296 kts | 302° |
| 2026-05-05 03:50 | 33.02526 | -117.66946 | 14971 ft | 305 kts | 302° |
| 2026-05-05 03:50 | 33.03806 | -117.68946 | 15280 ft | 301 kts | 302° |
| 2026-05-05 03:51 | 33.05077 | -117.70934 | 15637 ft | 302 kts | 302° |
| 2026-05-05 03:51 | 33.06364 | -117.72917 | 16005 ft | 304 kts | 305° |
| 2026-05-05 03:51 | 33.07889 | -117.74699 | 16383 ft | 309 kts | 313° |
| 2026-05-05 03:51 | 33.09545 | -117.76344 | 16766 ft | 310 kts | 315° |
| 2026-05-05 03:52 | 33.11193 | -117.77943 | 17146 ft | 311 kts | 315° |
| 2026-05-05 03:52 | 33.12864 | -117.79584 | 17536 ft | 311 kts | 314° |
| 2026-05-05 03:52 | 33.14516 | -117.81237 | 17936 ft | 310 kts | 314° |
| 2026-05-05 03:52 | 33.16165 | -117.82906 | 18326 ft | 310 kts | 313° |
| 2026-05-05 03:53 | 33.17807 | -117.84576 | 18675 ft | 310 kts | 313° |
| 2026-05-05 03:53 | 33.19446 | -117.86253 | 19026 ft | 309 kts | 311° |
| 2026-05-05 03:53 | 33.21007 | -117.87999 | 19377 ft | 307 kts | 309° |
| 2026-05-05 03:53 | 33.22515 | -117.89793 | 19737 ft | 306 kts | 308° |
| 2026-05-05 03:54 | 33.24009 | -117.91597 | 20101 ft | 305 kts | 307° |
| 2026-05-05 03:54 | 33.25475 | -117.93369 | 20465 ft | 304 kts | 307° |
| 2026-05-05 03:54 | 33.26964 | -117.95165 | 20837 ft | 303 kts | 307° |
| 2026-05-05 03:54 | 33.28449 | -117.96951 | 21212 ft | 302 kts | 307° |
| 2026-05-05 03:55 | 33.29930 | -117.98728 | 21585 ft | 301 kts | 307° |
| 2026-05-05 03:55 | 33.31406 | -118.00498 | 21974 ft | 300 kts | 307° |
| 2026-05-05 03:55 | 33.32874 | -118.02256 | 22369 ft | 298 kts | 307° |
| 2026-05-05 03:55 | 33.34338 | -118.04008 | 22761 ft | 297 kts | 307° |
| 2026-05-05 03:56 | 33.35790 | -118.05746 | 23162 ft | 295 kts | 307° |
| 2026-05-05 03:56 | 33.37237 | -118.07479 | 23568 ft | 293 kts | 306° |
| 2026-05-05 03:56 | 33.38671 | -118.09196 | 23911 ft | 291 kts | 306° |
| 2026-05-05 03:56 | 33.40094 | -118.10901 | 24251 ft | 289 kts | 305° |
| 2026-05-05 03:57 | 33.41487 | -118.12570 | 24589 ft | 286 kts | 304° |
| 2026-05-05 03:57 | 33.42889 | -118.14250 | 24935 ft | 284 kts | 304° |
| 2026-05-05 03:57 | 33.44275 | -118.15912 | 25284 ft | 281 kts | 303° |
| 2026-05-05 03:57 | 33.45649 | -118.17560 | 25640 ft | 278 kts | 303° |
| 2026-05-05 03:58 | 33.47007 | -118.19189 | 25995 ft | 275 kts | 302° |
| 2026-05-05 03:58 | 33.48346 | -118.20796 | 26357 ft | 271 kts | 301° |
| 2026-05-05 03:58 | 33.49668 | -118.22383 | 26728 ft | 267 kts | 300° |
| 2026-05-05 03:58 | 33.50969 | -118.23944 | 27086 ft | 263 kts | 300° |
| 2026-05-05 03:59 | 33.52247 | -118.25479 | 27458 ft | 258 kts | 299° |
| 2026-05-05 03:59 | 33.53482 | -118.26961 | 27838 ft | 252 kts | 298° |
| 2026-05-05 03:59 | 33.54712 | -118.28442 | 28061 ft | 253 kts | 297° |
| 2026-05-05 03:59 | 33.55969 | -118.29977 | 28060 ft | 262 kts | 298° |
| 2026-05-05 04:00 | 33.57267 | -118.31560 | 28065 ft | 271 kts | 298° |
| 2026-05-05 04:00 | 33.58616 | -118.33203 | 28073 ft | 281 kts | 299° |
| 2026-05-05 04:00 | 33.60011 | -118.34898 | 28071 ft | 290 kts | 300° |
| 2026-05-05 04:00 | 33.61451 | -118.36643 | 28058 ft | 299 kts | 301° |
| 2026-05-05 04:01 | 33.64460 | -118.40281 | 28061 ft | 315 kts | 301° |
| 2026-05-05 04:01 | 33.67611 | -118.44086 | 28064 ft | 328 kts | 302° |
| 2026-05-05 04:02 | 33.70868 | -118.48019 | 28061 ft | 339 kts | 303° |
| 2026-05-05 04:02 | 33.74239 | -118.52097 | 28066 ft | 348 kts | 303° |
| 2026-05-05 04:03 | 33.77689 | -118.56276 | 28058 ft | 356 kts | 303° |
| 2026-05-05 04:03 | 33.81199 | -118.60535 | 28058 ft | 361 kts | 303° |
| 2026-05-05 04:04 | 33.84735 | -118.64831 | 28058 ft | 365 kts | 304° |
| 2026-05-05 04:04 | 33.88308 | -118.69177 | 28053 ft | 366 kts | 304° |
| 2026-05-05 04:05 | 33.91882 | -118.73532 | 28048 ft | 365 kts | 304° |
| 2026-05-05 04:05 | 33.95448 | -118.77884 | 28036 ft | 365 kts | 304° |
| 2026-05-05 04:06 | 33.98974 | -118.82193 | 28041 ft | 363 kts | 304° |
| 2026-05-05 04:06 | 34.02517 | -118.86531 | 28036 ft | 362 kts | 304° |
| 2026-05-05 04:07 | 34.06038 | -118.90847 | 28049 ft | 361 kts | 304° |
| 2026-05-05 04:07 | 34.09551 | -118.95159 | 28059 ft | 359 kts | 304° |
| 2026-05-05 04:08 | 34.13056 | -118.99466 | 28063 ft | 359 kts | 304° |
| 2026-05-05 04:08 | 34.16064 | -119.04050 | 28053 ft | 345 kts | 292° |
| 2026-05-05 04:09 | 34.18539 | -119.08999 | 28054 ft | 344 kts | 291° |
| 2026-05-05 04:09 | 34.21010 | -119.13947 | 28039 ft | 344 kts | 292° |
| 2026-05-05 04:10 | 34.23514 | -119.18873 | 28054 ft | 344 kts | 292° |
| 2026-05-05 04:10 | 34.26033 | -119.23796 | 28053 ft | 345 kts | 293° |
| 2026-05-05 04:11 | 34.28541 | -119.28691 | 28059 ft | 345 kts | 293° |
| 2026-05-05 04:11 | 34.31071 | -119.33634 | 28032 ft | 345 kts | 293° |
| 2026-05-05 04:12 | 34.33592 | -119.38562 | 28066 ft | 344 kts | 293° |
| 2026-05-05 04:12 | 34.36107 | -119.43494 | 28051 ft | 345 kts | 293° |
| 2026-05-05 04:13 | 34.38635 | -119.48456 | 28032 ft | 347 kts | 294° |
| 2026-05-05 04:13 | 34.41224 | -119.53362 | 28022 ft | 352 kts | 299° |
| 2026-05-05 04:14 | 34.44622 | -119.57750 | 28033 ft | 359 kts | 307° |
| 2026-05-05 04:14 | 34.48160 | -119.62024 | 28029 ft | 359 kts | 307° |
| 2026-05-05 04:15 | 34.51677 | -119.66301 | 28035 ft | 358 kts | 307° |
| 2026-05-05 04:15 | 34.55175 | -119.70590 | 28030 ft | 358 kts | 307° |
| 2026-05-05 04:16 | 34.58640 | -119.74855 | 28030 ft | 357 kts | 307° |
| 2026-05-05 04:16 | 34.62127 | -119.79158 | 28008 ft | 357 kts | 307° |
| 2026-05-05 04:17 | 34.65653 | -119.83524 | 28015 ft | 372 kts | 307° |
| 2026-05-05 04:17 | 34.67496 | -119.85815 | 28038 ft | 385 kts | 307° |
| 2026-05-05 04:17 | 34.69402 | -119.88183 | 28054 ft | 399 kts | 308° |
| 2026-05-05 04:18 | 34.71374 | -119.90630 | 28077 ft | 412 kts | 308° |
| 2026-05-05 04:18 | 34.73411 | -119.93157 | 28060 ft | 424 kts | 308° |
| 2026-05-05 04:18 | 34.77607 | -119.98359 | 28059 ft | 443 kts | 309° |
| 2026-05-05 04:19 | 34.81946 | -120.03737 | 28071 ft | 446 kts | 309° |
| 2026-05-05 04:19 | 34.86289 | -120.09132 | 28064 ft | 446 kts | 309° |
| 2026-05-05 04:20 | 34.90621 | -120.14529 | 28063 ft | 444 kts | 309° |
| 2026-05-05 04:20 | 34.94878 | -120.19844 | 28061 ft | 439 kts | 309° |
| 2026-05-05 04:21 | 34.99130 | -120.25165 | 28063 ft | 437 kts | 309° |
| 2026-05-05 04:21 | 35.03374 | -120.30485 | 28057 ft | 437 kts | 309° |
| 2026-05-05 04:22 | 35.07610 | -120.35802 | 28070 ft | 437 kts | 309° |
| 2026-05-05 04:22 | 35.11978 | -120.41000 | 28057 ft | 440 kts | 312° |
| 2026-05-05 04:23 | 35.16489 | -120.45990 | 28028 ft | 440 kts | 313° |
| 2026-05-05 04:23 | 35.21021 | -120.51011 | 28050 ft | 440 kts | 313° |
| 2026-05-05 04:24 | 35.25531 | -120.56063 | 28065 ft | 440 kts | 313° |
| 2026-05-05 04:25 | 35.32311 | -120.63707 | 28049 ft | 443 kts | 313° |
| 2026-05-05 04:25 | 35.36857 | -120.68843 | 28070 ft | 451 kts | 313° |
| 2026-05-05 04:26 | 35.41522 | -120.74124 | 28065 ft | 468 kts | 313° |
| 2026-05-05 04:26 | 35.46358 | -120.79598 | 28067 ft | 477 kts | 313° |
| 2026-05-05 04:27 | 35.51435 | -120.84925 | 28068 ft | 482 kts | 318° |
| 2026-05-05 04:27 | 35.56816 | -120.89841 | 28067 ft | 482 kts | 320° |
| 2026-05-05 04:28 | 35.62183 | -120.94711 | 28052 ft | 483 kts | 319° |
| 2026-05-05 04:28 | 35.67550 | -120.99670 | 28040 ft | 483 kts | 319° |
| 2026-05-05 04:29 | 35.72901 | -121.04663 | 28062 ft | 482 kts | 319° |
| 2026-05-05 04:29 | 35.78249 | -121.09668 | 28050 ft | 484 kts | 319° |
| 2026-05-05 04:30 | 35.83581 | -121.14661 | 27825 ft | 487 kts | 319° |
| 2026-05-05 04:30 | 35.86277 | -121.17188 | 27450 ft | 486 kts | 320° |
| 2026-05-05 04:30 | 35.88966 | -121.19710 | 27094 ft | 486 kts | 320° |
| 2026-05-05 04:30 | 35.91662 | -121.22242 | 26739 ft | 488 kts | 320° |
| 2026-05-05 04:31 | 35.94368 | -121.24785 | 26395 ft | 489 kts | 320° |
| 2026-05-05 04:31 | 35.97079 | -121.27335 | 26054 ft | 491 kts | 320° |
| 2026-05-05 04:31 | 35.99793 | -121.29890 | 25709 ft | 490 kts | 321° |
| 2026-05-05 04:31 | 36.02493 | -121.32434 | 25365 ft | 486 kts | 321° |
| 2026-05-05 04:32 | 36.04270 | -121.34109 | 25142 ft | 485 kts | 321° |
| 2026-05-05 04:32 | 36.07834 | -121.37420 | 24710 ft | 483 kts | 323° |
| 2026-05-05 04:32 | 36.10625 | -121.39714 | 24608 ft | 480 kts | 326° |
| 2026-05-05 04:32 | 36.13468 | -121.41891 | 24662 ft | 481 kts | 327° |
| 2026-05-05 04:33 | 36.16336 | -121.44045 | 24660 ft | 485 kts | 328° |
| 2026-05-05 04:33 | 36.19217 | -121.46218 | 24648 ft | 485 kts | 328° |
| 2026-05-05 04:33 | 36.21119 | -121.47669 | 24639 ft | 484 kts | 327° |
| 2026-05-05 04:33 | 36.23992 | -121.49882 | 24285 ft | 487 kts | 327° |
| 2026-05-05 04:34 | 36.26829 | -121.52091 | 23933 ft | 472 kts | 328° |
| 2026-05-05 04:34 | 36.29549 | -121.54221 | 23563 ft | 456 kts | 328° |
| 2026-05-05 04:34 | 36.32201 | -121.56300 | 23149 ft | 447 kts | 328° |
| 2026-05-05 04:34 | 36.34821 | -121.58357 | 22739 ft | 447 kts | 328° |
| 2026-05-05 04:35 | 36.37457 | -121.60426 | 22337 ft | 447 kts | 328° |
| 2026-05-05 04:35 | 36.40079 | -121.62484 | 21937 ft | 446 kts | 328° |
| 2026-05-05 04:35 | 36.42659 | -121.64511 | 21555 ft | 443 kts | 328° |
| 2026-05-05 04:35 | 36.45257 | -121.66553 | 21164 ft | 441 kts | 328° |
| 2026-05-05 04:36 | 36.47819 | -121.68568 | 20772 ft | 429 kts | 328° |
| 2026-05-05 04:36 | 36.50290 | -121.70514 | 20429 ft | 407 kts | 328° |
| 2026-05-05 04:36 | 36.52603 | -121.72341 | 20056 ft | 383 kts | 328° |
| 2026-05-05 04:36 | 36.54788 | -121.74069 | 19667 ft | 363 kts | 328° |
| 2026-05-05 04:37 | 36.56873 | -121.75719 | 19281 ft | 348 kts | 329° |
| 2026-05-05 04:37 | 36.58912 | -121.77331 | 18786 ft | 349 kts | 328° |
| 2026-05-05 04:37 | 36.61018 | -121.78996 | 18277 ft | 368 kts | 328° |
| 2026-05-05 04:37 | 36.63170 | -121.80698 | 17692 ft | 372 kts | 328° |
| 2026-05-05 04:38 | 36.65336 | -121.82417 | 17109 ft | 367 kts | 328° |
| 2026-05-05 04:38 | 36.67474 | -121.84114 | 16540 ft | 362 kts | 328° |
| 2026-05-05 04:38 | 36.69589 | -121.85794 | 15982 ft | 358 kts | 328° |
| 2026-05-05 04:38 | 36.71682 | -121.87457 | 15429 ft | 355 kts | 328° |
| 2026-05-05 04:39 | 36.73774 | -121.89086 | 14813 ft | 353 kts | 332° |
| 2026-05-05 04:39 | 36.76073 | -121.90099 | 14204 ft | 350 kts | 348° |
| 2026-05-05 04:39 | 36.78443 | -121.90720 | 13599 ft | 347 kts | 349° |
| 2026-05-05 04:39 | 36.80767 | -121.91322 | 12979 ft | 344 kts | 349° |
| 2026-05-05 04:40 | 36.83094 | -121.91939 | 12411 ft | 340 kts | 348° |
| 2026-05-05 04:40 | 36.85401 | -121.92566 | 11846 ft | 338 kts | 348° |
| 2026-05-05 04:40 | 36.87681 | -121.93196 | 11301 ft | 334 kts | 348° |
| 2026-05-05 04:40 | 36.89937 | -121.93825 | 10761 ft | 331 kts | 348° |
| 2026-05-05 04:41 | 36.92172 | -121.94450 | 10229 ft | 328 kts | 347° |
| 2026-05-05 04:41 | 36.94397 | -121.95073 | 9678 ft | 327 kts | 347° |
| 2026-05-05 04:41 | 36.96589 | -121.95767 | 9105 ft | 325 kts | 344° |
| 2026-05-05 04:41 | 36.98749 | -121.96594 | 8539 ft | 323 kts | 342° |
| 2026-05-05 04:42 | 37.00856 | -121.97440 | 8145 ft | 323 kts | 342° |
| 2026-05-05 04:42 | 37.03005 | -121.98306 | 8044 ft | 324 kts | 342° |
| 2026-05-05 04:42 | 37.05149 | -121.99162 | 7998 ft | 323 kts | 342° |
| 2026-05-05 04:42 | 37.07285 | -122.00008 | 7983 ft | 319 kts | 342° |
| 2026-05-05 04:43 | 37.09339 | -122.00818 | 7990 ft | 298 kts | 343° |
| 2026-05-05 04:43 | 37.11237 | -122.01563 | 7988 ft | 279 kts | 343° |
| 2026-05-05 04:43 | 37.13095 | -122.02291 | 8006 ft | 280 kts | 343° |
| 2026-05-05 04:43 | 37.14968 | -122.03024 | 7526 ft | 283 kts | 343° |
| 2026-05-05 04:44 | 37.16811 | -122.03746 | 7050 ft | 280 kts | 343° |
| 2026-05-05 04:44 | 37.18664 | -122.04472 | 6558 ft | 278 kts | 343° |
| 2026-05-05 04:44 | 37.20496 | -122.05190 | 6141 ft | 272 kts | 343° |
| 2026-05-05 04:44 | 37.22315 | -122.05902 | 6036 ft | 275 kts | 343° |
| 2026-05-05 04:45 | 37.24098 | -122.06601 | 5981 ft | 256 kts | 343° |
| 2026-05-05 04:45 | 37.25707 | -122.07233 | 5982 ft | 229 kts | 343° |
| 2026-05-05 04:45 | 37.27181 | -122.07811 | 5606 ft | 222 kts | 342° |
| 2026-05-05 04:45 | 37.28661 | -122.08393 | 5062 ft | 222 kts | 342° |
| 2026-05-05 04:46 | 37.30137 | -122.08974 | 4486 ft | 223 kts | 341° |
| 2026-05-05 04:46 | 37.31592 | -122.09547 | 3940 ft | 221 kts | 341° |
| 2026-05-05 04:46 | 37.33053 | -122.10123 | 3393 ft | 220 kts | 340° |
| 2026-05-05 04:46 | 37.34489 | -122.10688 | 3031 ft | 208 kts | 340° |
| 2026-05-05 04:47 | 37.35779 | -122.11195 | 2914 ft | 191 kts | 340° |
| 2026-05-05 04:47 | 37.36988 | -122.11671 | 2897 ft | 185 kts | 340° |
| 2026-05-05 04:47 | 37.38229 | -122.12137 | 2910 ft | 189 kts | 341° |
| 2026-05-05 04:47 | 37.39490 | -122.12568 | 2898 ft | 188 kts | 342° |
| 2026-05-05 04:48 | 37.40749 | -122.12996 | 2890 ft | 187 kts | 342° |
| 2026-05-05 04:48 | 37.41988 | -122.13419 | 2895 ft | 186 kts | 341° |
| 2026-05-05 04:48 | 37.43203 | -122.13835 | 2900 ft | 186 kts | 342° |
| 2026-05-05 04:48 | 37.44479 | -122.14272 | 2887 ft | 185 kts | 341° |
| 2026-05-05 04:49 | 37.45716 | -122.14688 | 2901 ft | 185 kts | 342° |
| 2026-05-05 04:49 | 37.46942 | -122.15093 | 2910 ft | 184 kts | 342° |
| 2026-05-05 04:49 | 37.48132 | -122.15482 | 2924 ft | 167 kts | 342° |
| 2026-05-05 04:49 | 37.49221 | -122.15839 | 2886 ft | 158 kts | 341° |
| 2026-05-05 04:50 | 37.50269 | -122.16185 | 2891 ft | 156 kts | 341° |
| 2026-05-05 04:50 | 37.51323 | -122.16533 | 2902 ft | 157 kts | 341° |
| 2026-05-05 04:50 | 37.52380 | -122.16883 | 2915 ft | 157 kts | 341° |
| 2026-05-05 04:50 | 37.53329 | -122.17477 | 2933 ft | 150 kts | 317° |
| 2026-05-05 04:51 | 37.54033 | -122.18441 | 2910 ft | 148 kts | 296° |
| 2026-05-05 04:51 | 37.54512 | -122.19597 | 2840 ft | 152 kts | 295° |
| 2026-05-05 04:51 | 37.55013 | -122.20749 | 2643 ft | 151 kts | 296° |
| 2026-05-05 04:51 | 37.55512 | -122.21902 | 2446 ft | 148 kts | 296° |
| 2026-05-05 04:52 | 37.55990 | -122.23015 | 2252 ft | 142 kts | 296° |
| 2026-05-05 04:52 | 37.56458 | -122.24112 | 2076 ft | 143 kts | 296° |
| 2026-05-05 04:52 | 37.56930 | -122.25217 | 1880 ft | 143 kts | 296° |
| 2026-05-05 04:52 | 37.57397 | -122.26317 | 1698 ft | 142 kts | 296° |
| 2026-05-05 04:53 | 37.57861 | -122.27422 | 1506 ft | 143 kts | 295° |
| 2026-05-05 04:53 | 37.58305 | -122.28541 | 1326 ft | 143 kts | 294° |
| 2026-05-05 04:53 | 37.58727 | -122.29682 | 1104 ft | 143 kts | 292° |
| 2026-05-05 04:53 | 37.59154 | -122.30781 | 909 ft | 140 kts | 297° |
| 2026-05-05 04:54 | 37.59624 | -122.31844 | 687 ft | 137 kts | 298° |
| 2026-05-05 04:54 | 37.60091 | -122.32896 | 545 ft | 138 kts | 299° |
| 2026-05-05 04:54 | 37.60565 | -122.33952 | 359 ft | 138 kts | 300° |
| 2026-05-05 04:54 | 37.61031 | -122.34991 | 158 ft | 134 kts | 300° |
| 2026-05-05 04:55 | 37.61474 | -122.36019 | 31 ft | 135 kts | 298° |
| 2026-05-05 04:55 | 37.61882 | -122.36984 | 18 ft | 105 kts | 297° |
| 2026-05-05 04:55 | 37.62155 | -122.37630 | 19 ft | 61 kts | 298° |
| 2026-05-05 04:55 | 37.62207 | -122.37878 | 21 ft | 30 kts | 278° |
| 2026-05-05 04:56 | 37.62230 | -122.38150 | 23 ft | 32 kts | 266° |
| 2026-05-05 04:56 | 37.62162 | -122.38319 | 20 ft | 12 kts | 192° |
| 2026-05-05 04:56 | 37.62066 | -122.38342 | 22 ft | 16 kts | 193° |
| 2026-05-05 04:56 | 37.62011 | -122.38370 | 21 ft | 6 kts | 212° |
| 2026-05-05 04:57 | 37.61987 | -122.38401 | 20 ft | 2 kts | 229° |
| 2026-05-05 04:57 | 37.61985 | -122.38403 | 19 ft | 0 kts | 229° |